Time;durP1;ratioP1;P1;durP2;ratioP2;P2;SDS_P1;SDS_P2;PMS_P1;PMS_P2;Temp;Humidity;BMP_temperature;BMP_pressure;BME280_temperature;BME280_humidity;BME280_pressure;Samples;Min_cycle;Max_cycle;Signal;HPM_P1;HPM_P2
2022/11/07 00:00:35;;;;;;;9.98;5.35;;;;;;;9.40;100.00;100382.84;5066131;28;20555;-83
2022/11/07 00:03:03;;;;;;;9.25;5.75;;;;;;;9.42;100.00;100365.31;5042529;28;20537;-83
2022/11/07 00:05:32;;;;;;;8.05;5.05;;;;;;;9.45;100.00;100378.44;5033155;28;20250;-83
2022/11/07 00:08:00;;;;;;;6.85;4.93;;;;;;;9.47;100.00;100374.97;5015236;28;20052;-82
2022/11/07 00:10:30;;;;;;;12.70;6.07;;;;;;;9.49;100.00;100383.72;5072690;28;20047;-83
2022/11/07 00:12:59;;;;;;;10.82;5.28;;;;;;;9.51;100.00;100381.09;5039482;28;20040;-82
2022/11/07 00:15:27;;;;;;;9.93;5.88;;;;;;;9.53;100.00;100389.88;5034432;28;20063;-82
2022/11/07 00:17:57;;;;;;;6.15;5.60;;;;;;;9.55;100.00;100382.84;5058174;28;20056;-82
2022/11/07 00:20:25;;;;;;;8.88;5.40;;;;;;;9.57;100.00;100396.88;5044430;28;20053;-82
2022/11/07 00:22:53;;;;;;;9.00;5.43;;;;;;;9.56;100.00;100393.38;5028213;28;20414;-83
2022/11/07 00:25:22;;;;;;;7.70;5.20;;;;;;;9.59;100.00;100407.41;5032043;28;20253;-83
2022/11/07 00:27:51;;;;;;;9.65;5.00;;;;;;;9.60;100.00;100390.72;5060625;28;20497;-83
2022/11/07 00:30:19;;;;;;;8.90;4.68;;;;;;;9.62;100.00;100408.28;5044718;28;20051;-83
2022/11/07 00:32:47;;;;;;;6.10;4.90;;;;;;;9.63;100.00;100402.13;5070950;28;20413;-83
2022/11/07 00:35:16;;;;;;;10.15;4.68;;;;;;;9.66;100.00;100402.16;5058714;28;20044;-83
2022/11/07 00:37:44;;;;;;;12.80;5.35;;;;;;;9.68;100.00;100399.53;4997414;28;20052;-83
2022/11/07 00:40:13;;;;;;;11.10;4.97;;;;;;;9.69;100.00;100402.13;5025513;28;20055;-83
2022/11/07 00:42:43;;;;;;;10.02;5.00;;;;;;;9.71;100.00;100400.38;5054010;28;20053;-83
2022/11/07 00:45:12;;;;;;;11.02;4.13;;;;;;;9.71;100.00;100408.25;5031972;28;20048;-82
2022/11/07 00:47:40;;;;;;;8.63;4.32;;;;;;;9.75;100.00;100401.25;5066603;28;20044;-83
2022/11/07 00:50:09;;;;;;;10.77;5.13;;;;;;;9.78;100.00;100405.66;5065794;28;20048;-84
2022/11/07 00:52:37;;;;;;;5.72;4.40;;;;;;;9.78;100.00;100410.91;5064599;28;20510;-84
2022/11/07 00:55:06;;;;;;;10.32;4.80;;;;;;;9.79;100.00;100407.38;5032751;28;20040;-84
2022/11/07 00:57:34;;;;;;;12.85;4.45;;;;;;;9.79;100.00;100412.66;5051710;28;20055;-80
2022/11/07 01:00:04;;;;;;;12.07;4.88;;;;;;;9.81;100.00;100421.41;5062862;28;20040;-84
2022/11/07 01:02:33;;;;;;;4.78;4.20;;;;;;;9.84;100.00;100418.78;5057928;28;20040;-81
2022/11/07 01:05:11;;;;;;;11.57;4.35;;;;;;;9.84;100.00;100427.56;5068180;28;20498;-81
2022/11/07 01:07:44;;;;;;;7.63;4.40;;;;;;;9.87;100.00;100419.69;5057770;28;20041;-82
2022/11/07 01:10:12;;;;;;;6.75;4.63;;;;;;;9.88;100.00;100423.19;5030358;28;20037;-82
2022/11/07 01:12:41;;;;;;;8.63;4.50;;;;;;;9.88;100.00;100417.91;5057331;28;20048;-82
2022/11/07 01:15:10;;;;;;;10.43;4.45;;;;;;;9.88;100.00;100412.66;5027638;28;20049;-82
2022/11/07 01:17:38;;;;;;;14.57;4.70;;;;;;;9.89;100.00;100414.41;5072430;28;20040;-82
2022/11/07 01:20:07;;;;;;;14.02;4.70;;;;;;;9.89;100.00;100423.19;5047695;28;20044;-84
2022/11/07 01:22:36;;;;;;;11.63;4.35;;;;;;;9.92;100.00;100424.91;5017465;28;20150;-82
2022/11/07 01:25:05;;;;;;;6.65;3.40;;;;;;;9.90;100.00;100414.38;5053337;28;20043;-82
2022/11/07 01:27:34;;;;;;;6.03;3.45;;;;;;;9.91;100.00;100426.69;5078847;28;20272;-82
2022/11/07 01:30:03;;;;;;;9.15;3.97;;;;;;;9.91;100.00;100431.94;5071020;28;20157;-82
2022/11/07 01:32:31;;;;;;;7.22;3.97;;;;;;;9.91;100.00;100434.56;5054103;28;20059;-81
2022/11/07 01:35:00;;;;;;;8.90;3.83;;;;;;;9.93;100.00;100426.69;5087618;28;20052;-82
2022/11/07 01:37:29;;;;;;;10.50;4.07;;;;;;;9.95;100.00;100440.72;5073384;28;20039;-81
2022/11/07 01:39:57;;;;;;;9.80;4.10;;;;;;;9.97;100.00;100441.59;5074773;28;20040;-82
2022/11/07 01:42:29;;;;;;;8.85;4.60;;;;;;;9.99;100.00;100434.56;5056044;28;20237;-82
2022/11/07 01:44:58;;;;;;;12.57;4.40;;;;;;;10.01;100.00;100443.34;5077763;28;20048;-83
2022/11/07 01:47:37;;;;;;;11.93;3.90;;;;;;;10.01;100.00;100424.91;5051957;28;20525;-82
2022/11/07 01:50:06;;;;;;;6.68;4.15;;;;;;;10.02;100.00;100429.31;5089279;28;20048;-83
2022/11/07 01:52:38;;;;;;;8.20;3.70;;;;;;;10.03;100.00;100433.69;5060407;28;20039;-82
2022/11/07 01:55:30;;;;;;;9.07;4.30;;;;;;;10.06;100.00;100428.44;5038458;28;20037;-81
2022/11/07 01:58:03;;;;;;;9.68;4.43;;;;;;;10.06;100.00;100432.81;5083495;28;20043;-82
2022/11/07 02:00:34;;;;;;;9.63;3.65;;;;;;;10.06;100.00;100433.69;5072205;28;20245;-82
2022/11/07 02:03:14;;;;;;;13.05;3.58;;;;;;;10.06;100.00;100432.81;5042064;28;20425;-83
2022/11/07 02:05:53;;;;;;;8.63;3.83;;;;;;;10.05;100.00;100446.84;5071125;28;20057;-82
2022/11/07 02:08:23;;;;;;;12.50;3.70;;;;;;;10.04;100.00;100435.44;5064988;28;20154;-82
2022/11/07 02:10:52;;;;;;;9.82;4.15;;;;;;;10.04;100.00;100445.97;5034419;28;20060;-82
2022/11/07 02:13:26;;;;;;;13.02;4.35;;;;;;;10.05;100.00;100452.97;5073554;28;20043;-82
2022/11/07 02:15:54;;;;;;;9.20;3.70;;;;;;;10.06;100.00;100454.75;5060740;28;20049;-82
2022/11/07 02:18:25;;;;;;;12.60;3.50;;;;;;;10.06;100.00;100438.97;5061805;28;20055;-82
2022/11/07 02:20:58;;;;;;;14.45;4.63;;;;;;;10.03;100.00;100454.75;5073644;28;20044;-82
2022/11/07 02:23:39;;;;;;;7.95;3.22;;;;;;;10.04;100.00;100455.66;5080692;28;20277;-81
2022/11/07 02:26:08;;;;;;;12.35;4.07;;;;;;;10.04;100.00;100453.00;5070979;28;20051;-82
2022/11/07 02:28:39;;;;;;;15.57;4.38;;;;;;;10.06;100.00;100451.25;5028035;28;20252;-82
2022/11/07 02:31:08;;;;;;;12.82;4.30;;;;;;;10.09;100.00;100460.03;5063595;28;20048;-82
2022/11/07 02:33:36;;;;;;;11.88;3.33;;;;;;;10.12;100.00;100465.28;5051800;28;20053;-83
2022/11/07 02:36:05;;;;;;;6.18;3.45;;;;;;;10.14;100.00;100463.50;5067856;28;20049;-83
2022/11/07 02:38:35;;;;;;;7.50;4.20;;;;;;;10.18;100.00;100468.78;5039058;28;20059;-82
2022/11/07 02:41:09;;;;;;;6.55;3.28;;;;;;;10.19;100.00;100471.41;5068005;28;20040;-83
2022/11/07 02:43:41;;;;;;;13.05;3.40;;;;;;;10.18;100.00;100474.91;5078117;28;20052;-82
2022/11/07 02:46:12;;;;;;;7.15;3.38;;;;;;;10.16;100.00;100466.16;5089027;28;20047;-83
2022/11/07 02:48:49;;;;;;;6.03;3.20;;;;;;;10.15;100.00;100469.63;5067310;28;20056;-82
2022/11/07 02:51:17;;;;;;;9.45;3.20;;;;;;;10.15;100.00;100470.53;5070883;28;20048;-83
2022/11/07 02:53:46;;;;;;;8.43;2.97;;;;;;;10.14;100.00;100474.03;5063883;28;20048;-82
2022/11/07 02:56:15;;;;;;;8.75;3.20;;;;;;;10.13;100.00;100464.41;5047787;28;20036;-82
2022/11/07 02:58:44;;;;;;;11.05;3.42;;;;;;;10.14;100.00;100476.66;5014992;28;20029;-82
2022/11/07 03:01:14;;;;;;;11.77;2.92;;;;;;;10.14;100.00;100481.94;5074522;28;20378;-83
2022/11/07 03:03:45;;;;;;;9.70;3.38;;;;;;;10.14;100.00;100478.44;5047120;28;20173;-82
2022/11/07 03:06:16;;;;;;;11.73;3.17;;;;;;;10.14;100.00;100478.44;5050979;28;20159;-82
2022/11/07 03:08:45;;;;;;;9.05;3.17;;;;;;;10.13;100.00;100481.94;5054929;28;20033;-83
2022/11/07 03:11:18;;;;;;;8.95;2.88;;;;;;;10.11;100.00;100474.06;5050639;28;20148;-82
2022/11/07 03:13:49;;;;;;;8.25;3.53;;;;;;;10.09;100.00;100480.19;5056949;28;20045;-82
2022/11/07 03:16:18;;;;;;;6.07;2.55;;;;;;;10.09;100.00;100480.19;5056354;28;20063;-82
2022/11/07 03:18:47;;;;;;;6.35;2.80;;;;;;;10.08;100.00;100483.72;5071395;28;20044;-83
2022/11/07 03:21:15;;;;;;;12.48;3.42;;;;;;;10.04;100.00;100474.06;5073856;28;20505;-82
2022/11/07 03:23:44;;;;;;;10.93;3.10;;;;;;;10.01;100.00;100480.19;5050029;28;20245;-83
2022/11/07 03:26:12;;;;;;;8.85;2.95;;;;;;;10.00;100.00;100477.56;5074928;28;20047;-82
2022/11/07 03:28:46;;;;;;;9.35;3.55;;;;;;;9.98;100.00;100485.47;5012644;28;20047;-82
2022/11/07 03:31:14;;;;;;;8.60;2.78;;;;;;;9.97;100.00;100486.34;5078367;28;20028;-82
2022/11/07 03:33:43;;;;;;;6.68;3.33;;;;;;;9.97;100.00;100491.59;5061205;28;20051;-82
2022/11/07 03:36:11;;;;;;;8.18;3.00;;;;;;;9.96;100.00;100484.56;5032430;28;20055;-82
2022/11/07 03:38:39;;;;;;;5.68;2.85;;;;;;;9.98;100.00;100492.47;5067480;28;20102;-83
2022/11/07 03:41:08;;;;;;;6.07;2.70;;;;;;;9.98;100.00;100500.38;5071921;28;20048;-83
2022/11/07 03:43:36;;;;;;;10.15;3.65;;;;;;;10.00;100.00;100490.72;5046809;28;20051;-83
2022/11/07 03:46:04;;;;;;;13.45;3.25;;;;;;;10.03;100.00;100503.88;5092596;28;20048;-82
2022/11/07 03:48:34;;;;;;;9.82;3.40;;;;;;;10.04;100.00;100530.22;5042820;28;20385;-82
2022/11/07 03:51:04;;;;;;;12.03;3.30;;;;;;;10.08;100.00;100520.56;5082638;28;20043;-82
2022/11/07 03:53:32;;;;;;;10.65;3.42;;;;;;;10.09;100.00;100524.94;5070714;28;20278;-83
2022/11/07 03:56:07;;;;;;;12.45;3.85;;;;;;;10.08;100.00;100515.31;5078818;28;20250;-82
2022/11/07 03:58:36;;;;;;;7.47;3.42;;;;;;;10.07;100.00;100526.69;5054296;28;20037;-82
2022/11/07 04:01:05;;;;;;;15.82;3.80;;;;;;;10.03;100.00;100520.56;5089472;28;20048;-82
2022/11/07 04:03:37;;;;;;;12.68;4.00;;;;;;;10.01;100.00;100529.34;5082758;28;20051;-83
2022/11/07 04:06:05;;;;;;;11.02;4.30;;;;;;;9.99;100.00;100513.53;5061224;28;20055;-82
2022/11/07 04:08:34;;;;;;;12.02;4.05;;;;;;;9.97;100.00;100533.72;5078002;28;20048;-83
2022/11/07 04:11:03;;;;;;;13.68;4.32;;;;;;;9.94;100.00;100531.06;5081967;28;20059;-82
2022/11/07 04:19:06;;;;;;;11.02;3.35;;;;;;;9.90;100.00;100521.44;5086815;28;20408;-82
2022/11/07 04:21:34;;;;;;;15.95;4.05;;;;;;;9.89;100.00;100527.59;5059502;28;20040;-82
2022/11/07 04:24:04;;;;;;;7.70;4.03;;;;;;;9.85;100.00;100526.69;5050525;28;20032;-82
2022/11/07 04:29:20;;;;;;;11.43;3.50;;;;;;;9.80;100.00;100522.31;5061298;28;20063;-82
2022/11/07 04:31:51;;;;;;;12.00;3.70;;;;;;;9.79;100.00;100526.66;5047515;28;20051;-82
2022/11/07 04:34:19;;;;;;;15.60;4.68;;;;;;;9.73;100.00;100524.94;5074163;28;20048;-82
2022/11/07 04:36:48;;;;;;;14.75;4.28;;;;;;;9.71;100.00;100539.81;5033174;28;20044;-83
2022/11/07 04:39:16;;;;;;;15.82;4.72;;;;;;;9.68;100.00;100531.94;5066894;28;20504;-82
2022/11/07 04:41:45;;;;;;;11.73;3.63;;;;;;;9.67;100.00;100540.69;5041694;28;20658;-82
2022/11/07 04:44:14;;;;;;;20.73;3.85;;;;;;;9.68;100.00;100542.47;5072807;28;20035;-82
2022/11/07 04:46:42;;;;;;;13.55;3.40;;;;;;;9.69;100.00;100548.59;5031232;28;20441;-82
2022/11/07 04:49:13;;;;;;;10.35;3.47;;;;;;;9.67;100.00;100540.69;5034378;28;20051;-82
2022/11/07 04:51:43;;;;;;;12.07;3.78;;;;;;;9.66;100.00;100536.31;5085027;28;20262;-83
2022/11/07 04:54:13;;;;;;;12.35;4.32;;;;;;;9.64;100.00;100535.44;5085037;28;20048;-83
2022/11/07 04:56:41;;;;;;;11.27;4.47;;;;;;;9.62;100.00;100539.84;5071448;28;20599;-82
2022/11/07 04:59:11;;;;;;;11.98;3.97;;;;;;;9.61;100.00;100534.56;5019802;28;20045;-81
2022/11/07 05:01:39;;;;;;;10.80;3.70;;;;;;;9.60;100.00;100544.19;5002116;28;20509;-83
2022/11/07 05:04:07;;;;;;;11.63;3.65;;;;;;;9.60;100.00;100541.53;5072993;28;20059;-82
2022/11/07 05:06:36;;;;;;;14.40;3.58;;;;;;;9.62;100.00;100545.09;5075635;28;20042;-82
2022/11/07 05:09:07;;;;;;;8.10;3.53;;;;;;;9.63;100.00;100554.72;5052863;28;20068;-83
2022/11/07 05:11:35;;;;;;;18.50;4.93;;;;;;;9.67;100.00;100568.75;5054652;28;20173;-82
2022/11/07 05:14:04;;;;;;;15.05;4.18;;;;;;;9.68;100.00;100558.25;5068004;28;20052;-83
2022/11/07 05:16:37;;;;;;;14.88;4.25;;;;;;;9.70;100.00;100572.28;5037295;28;20055;-82
2022/11/07 05:19:06;;;;;;;14.10;3.90;;;;;;;9.72;100.00;100570.53;5055711;28;20049;-82
2022/11/07 05:21:34;;;;;;;11.48;4.35;;;;;;;9.73;100.00;100567.03;5045524;28;20036;-83
2022/11/07 05:24:02;;;;;;;13.93;4.20;;;;;;;9.75;100.00;100582.81;5066219;28;20064;-83
2022/11/07 05:26:31;;;;;;;9.23;4.35;;;;;;;9.77;100.00;100567.91;5049806;28;20048;-83
2022/11/07 05:28:59;;;;;;;11.90;4.38;;;;;;;9.79;100.00;100567.91;5085341;28;20143;-82
2022/11/07 05:31:28;;;;;;;12.35;4.20;;;;;;;9.80;100.00;100569.69;5049744;28;20048;-83
2022/11/07 05:33:56;;;;;;;15.35;4.53;;;;;;;9.81;100.00;100584.56;5063466;28;20067;-84
2022/11/07 05:36:24;;;;;;;14.10;4.70;;;;;;;9.81;100.00;100572.31;5082498;28;20218;-83
2022/11/07 05:38:53;;;;;;;14.50;5.30;;;;;;;9.83;100.00;100567.03;5047611;28;20037;-82
2022/11/07 05:41:22;;;;;;;15.02;5.70;;;;;;;9.82;100.00;100581.09;5071531;28;20048;-83
2022/11/07 05:43:50;;;;;;;16.70;5.13;;;;;;;9.78;100.00;100577.56;5067256;28;20048;-82
2022/11/07 05:46:18;;;;;;;13.90;5.65;;;;;;;9.76;100.00;100587.22;5037974;28;20044;-84
2022/11/07 05:48:47;;;;;;;15.25;5.38;;;;;;;9.70;100.00;100590.72;5045711;28;20044;-84
2022/11/07 05:51:15;;;;;;;14.30;4.53;;;;;;;9.68;100.00;100586.31;5085148;28;20044;-83
2022/11/07 05:53:44;;;;;;;9.32;4.20;;;;;;;9.64;100.00;100589.78;5071566;28;20037;-83
2022/11/07 05:56:12;;;;;;;12.27;4.20;;;;;;;9.61;100.00;100584.53;5070497;28;20386;-83
2022/11/07 05:58:41;;;;;;;10.20;5.18;;;;;;;9.57;100.00;100581.88;5094455;28;20055;-82
2022/11/07 06:01:09;;;;;;;16.92;4.95;;;;;;;9.57;100.00;100591.53;5058286;28;20032;-83
2022/11/07 06:03:37;;;;;;;13.02;5.45;;;;;;;9.56;100.00;100584.50;5034464;28;20232;-83
2022/11/07 06:06:07;;;;;;;14.80;4.88;;;;;;;9.56;100.00;100589.78;5050529;28;20048;-83
2022/11/07 06:08:36;;;;;;;12.85;5.43;;;;;;;9.55;100.00;100585.41;5034323;28;20033;-83
2022/11/07 06:11:04;;;;;;;14.05;5.38;;;;;;;9.55;100.00;100598.56;5064961;28;20040;-83
2022/11/07 06:13:33;;;;;;;19.98;6.03;;;;;;;9.54;100.00;100588.88;5065929;28;20045;-83
2022/11/07 06:16:02;;;;;;;16.77;6.07;;;;;;;9.54;100.00;100592.38;5068450;28;20053;-83
2022/11/07 06:18:31;;;;;;;12.25;5.50;;;;;;;9.56;100.00;100601.19;5056901;28;20169;-82
2022/11/07 06:21:02;;;;;;;14.60;5.88;;;;;;;9.58;100.00;100603.81;5041912;28;20040;-83
2022/11/07 06:23:32;;;;;;;15.18;5.68;;;;;;;9.59;100.00;100600.31;5071730;28;20453;-83
2022/11/07 06:26:01;;;;;;;15.10;5.97;;;;;;;9.62;100.00;100605.59;5071946;28;20055;-82
2022/11/07 06:28:29;;;;;;;9.70;5.03;;;;;;;9.64;100.00;100601.22;5076168;28;20044;-83
2022/11/07 06:30:59;;;;;;;14.00;6.75;;;;;;;9.65;100.00;100600.31;5075966;28;20607;-81
2022/11/07 06:33:30;;;;;;;20.57;6.37;;;;;;;9.67;100.00;100609.09;5073355;28;20071;-84
2022/11/07 06:36:07;;;;;;;21.20;7.63;;;;;;;9.69;100.00;100612.63;5036016;28;20041;-84
2022/11/07 06:38:37;;;;;;;12.55;6.95;;;;;;;9.70;100.00;100614.38;5072737;28;20035;-84
2022/11/07 06:41:07;;;;;;;13.40;6.23;;;;;;;9.72;100.00;100607.38;5028686;28;20460;-83
2022/11/07 06:43:36;;;;;;;13.82;5.75;;;;;;;9.74;100.00;100617.91;5083297;28;20373;-84
2022/11/07 06:46:08;;;;;;;9.82;4.75;;;;;;;9.73;100.00;100617.03;5056393;28;20041;-84
2022/11/07 06:48:38;;;;;;;14.88;5.50;;;;;;;9.74;100.00;100607.38;5084686;28;20051;-85
2022/11/07 06:51:08;;;;;;;11.70;5.93;;;;;;;9.75;100.00;100615.28;5062715;28;21114;-84
2022/11/07 06:53:37;;;;;;;9.63;5.15;;;;;;;9.74;100.00;100608.25;5074303;28;20032;-84
2022/11/07 06:56:08;;;;;;;13.80;5.80;;;;;;;9.75;100.00;100615.28;5075906;28;20040;-84
2022/11/07 06:58:37;;;;;;;15.23;5.75;;;;;;;9.75;100.00;100622.28;5058025;28;20017;-85
2022/11/07 07:01:12;;;;;;;17.27;5.88;;;;;;;9.72;100.00;100620.53;5059623;28;20146;-83
2022/11/07 07:03:42;;;;;;;14.80;5.72;;;;;;;9.72;100.00;100623.16;5066092;28;20040;-84
2022/11/07 07:06:15;;;;;;;9.85;5.97;;;;;;;9.72;100.00;100622.28;5073751;28;20043;-83
2022/11/07 07:08:47;;;;;;;10.10;4.85;;;;;;;9.71;100.00;100633.66;5049923;28;20032;-83
2022/11/07 07:11:15;;;;;;;9.50;4.97;;;;;;;9.73;100.00;100642.44;5070780;28;20055;-83
2022/11/07 07:13:44;;;;;;;13.65;5.57;;;;;;;9.72;100.00;100635.44;5042115;28;20036;-83
2022/11/07 07:16:12;;;;;;;9.00;5.10;;;;;;;9.73;100.00;100634.56;5028534;28;20398;-84
2022/11/07 07:18:41;;;;;;;9.35;4.75;;;;;;;9.75;100.00;100633.72;5059519;28;20055;-83
2022/11/07 07:21:12;;;;;;;15.25;4.60;;;;;;;9.77;100.00;100641.56;5046835;28;20047;-84
2022/11/07 07:23:41;;;;;;;10.07;5.05;;;;;;;9.78;100.00;100643.34;5036688;28;20144;-84
2022/11/07 07:26:13;;;;;;;11.65;4.85;;;;;;;9.81;100.00;100631.94;5076958;28;20044;-85
2022/11/07 07:28:43;;;;;;;13.05;4.63;;;;;;;9.83;100.00;100651.25;5082633;28;20066;-84
2022/11/07 07:31:14;;;;;;;7.80;3.72;;;;;;;9.85;100.00;100653.03;5072221;28;20047;-84
2022/11/07 07:33:45;;;;;;;14.93;4.88;;;;;;;9.87;100.00;100658.31;5068933;28;20052;-83
2022/11/07 07:36:14;;;;;;;9.77;3.85;;;;;;;9.88;100.00;100662.69;5061586;28;20374;-85
2022/11/07 07:38:49;;;;;;;12.00;3.83;;;;;;;9.91;100.00;100665.31;5050812;28;20059;-83
2022/11/07 07:41:17;;;;;;;9.10;4.00;;;;;;;9.93;100.00;100664.44;5070158;28;20531;-84
2022/11/07 07:43:46;;;;;;;14.43;5.22;;;;;;;9.94;100.00;100665.31;5073346;28;20040;-83
2022/11/07 07:46:20;;;;;;;17.38;5.45;;;;;;;9.95;100.00;100657.44;5021532;28;20059;-83
2022/11/07 07:48:49;;;;;;;9.85;4.85;;;;;;;9.97;100.00;100654.81;5071367;28;20397;-84
2022/11/07 07:51:17;;;;;;;12.40;5.13;;;;;;;9.99;100.00;100658.31;5062778;28;20048;-84
2022/11/07 07:53:45;;;;;;;13.48;5.97;;;;;;;10.02;100.00;100649.53;5033246;28;20405;-83
2022/11/07 07:56:16;;;;;;;15.80;6.38;;;;;;;10.04;100.00;100661.84;5056984;28;20041;-84
2022/11/07 07:58:45;;;;;;;16.17;7.40;;;;;;;10.07;100.00;100669.75;5040177;28;20048;-83
2022/11/07 08:01:14;;;;;;;14.63;6.78;;;;;;;10.10;100.00;100667.13;5050126;28;20036;-85
2022/11/07 08:03:43;;;;;;;20.85;7.18;;;;;;;10.12;100.00;100672.41;5052168;28;20051;-83
2022/11/07 08:06:29;;;;;;;16.33;6.55;;;;;;;10.12;100.00;100672.41;5068940;28;20043;-85
2022/11/07 08:08:57;;;;;;;19.60;7.65;;;;;;;10.12;100.00;100675.91;5036615;28;20032;-86
2022/11/07 08:11:26;;;;;;;12.45;6.70;;;;;;;10.12;100.00;100675.91;5071250;28;20020;-86
2022/11/07 08:13:54;;;;;;;21.45;7.50;;;;;;;10.13;100.00;100682.03;5074007;28;20490;-86
2022/11/07 08:16:28;;;;;;;18.30;7.70;;;;;;;10.13;100.00;100677.69;5052285;28;20071;-86
2022/11/07 08:18:57;;;;;;;16.60;7.45;;;;;;;10.14;100.00;100676.78;5062978;28;20408;-85
2022/11/07 08:21:25;;;;;;;16.05;6.93;;;;;;;10.18;100.00;100682.06;5063269;28;20033;-82
2022/11/07 08:23:55;;;;;;;19.05;6.30;;;;;;;10.20;100.00;100675.03;5062228;28;20036;-83
2022/11/07 08:26:24;;;;;;;13.85;7.32;;;;;;;10.20;100.00;100678.53;5030866;28;20433;-84
2022/11/07 08:28:53;;;;;;;14.60;6.30;;;;;;;10.22;100.00;100687.31;5032442;28;20055;-84
2022/11/07 08:31:22;;;;;;;15.23;7.00;;;;;;;10.22;100.00;100678.56;5083433;28;20290;-84
2022/11/07 08:33:50;;;;;;;24.95;8.18;;;;;;;10.24;100.00;100692.59;5076919;28;20047;-84
2022/11/07 08:36:22;;;;;;;24.45;7.63;;;;;;;10.24;100.00;100688.22;5036567;28;20036;-84
2022/11/07 08:38:50;;;;;;;18.45;7.15;;;;;;;10.25;100.00;100689.97;5062558;28;20047;-83
2022/11/07 08:41:19;;;;;;;14.02;7.80;;;;;;;10.27;100.00;100690.00;4999061;28;20056;-81
2022/11/07 08:43:49;;;;;;;14.20;7.22;;;;;;;10.30;100.00;100687.34;5044101;28;20071;-82
2022/11/07 08:46:18;;;;;;;12.98;7.43;;;;;;;10.31;100.00;100697.91;5064317;28;20048;-83
2022/11/07 08:48:46;;;;;;;20.73;10.43;;;;;;;10.31;100.00;100684.75;5037185;28;20085;-83
2022/11/07 08:51:15;;;;;;;11.20;6.50;;;;;;;10.32;100.00;100697.06;5027204;28;20043;-84
2022/11/07 08:53:43;;;;;;;15.48;7.60;;;;;;;10.33;100.00;100690.03;5059000;28;20161;-84
2022/11/07 08:56:12;;;;;;;17.50;7.93;;;;;;;10.33;100.00;100695.28;5058772;28;20040;-83
2022/11/07 08:58:40;;;;;;;15.15;7.60;;;;;;;10.34;100.00;100702.34;5055901;28;20055;-85
2022/11/07 09:01:09;;;;;;;15.90;8.20;;;;;;;10.34;100.00;100700.56;5054619;28;20052;-84
2022/11/07 09:03:38;;;;;;;13.55;7.28;;;;;;;10.37;100.00;100706.72;5049899;28;20048;-82
2022/11/07 09:06:23;;;;;;;20.58;7.22;;;;;;;10.37;100.00;100707.59;5078537;28;20720;-84
2022/11/07 09:08:52;;;;;;;20.00;7.65;;;;;;;10.37;100.00;100704.94;5058679;28;20044;-82
2022/11/07 09:11:20;;;;;;;18.02;7.43;;;;;;;10.36;100.00;100716.38;5052456;28;20043;-82
2022/11/07 09:13:49;;;;;;;18.05;7.63;;;;;;;10.37;100.00;100723.38;5055415;28;20040;-82
2022/11/07 09:16:18;;;;;;;17.77;8.23;;;;;;;10.38;100.00;100719.91;5058651;28;20481;-82
2022/11/07 09:18:48;;;;;;;18.30;7.75;;;;;;;10.38;100.00;100725.16;5049758;28;20059;-82
2022/11/07 09:21:17;;;;;;;15.95;7.15;;;;;;;10.39;100.00;100728.66;5076808;28;20048;-84
2022/11/07 09:23:50;;;;;;;15.60;6.93;;;;;;;10.41;100.00;100721.66;5042070;28;20044;-82
2022/11/07 09:26:19;;;;;;;18.92;6.75;;;;;;;10.43;100.00;100712.84;5040070;28;20035;-82
2022/11/07 09:28:50;;;;;;;19.15;7.35;;;;;;;10.44;100.00;100717.25;5079659;28;20045;-84
2022/11/07 09:31:25;;;;;;;18.58;6.80;;;;;;;10.47;100.00;100730.44;5074851;28;20053;-82
2022/11/07 09:33:54;;;;;;;16.88;7.82;;;;;;;10.49;100.00;100726.06;5064143;28;23888;-82
2022/11/07 09:36:23;;;;;;;18.67;7.80;;;;;;;10.48;100.00;100719.03;5054993;28;20044;-82
2022/11/07 09:38:54;;;;;;;23.83;6.70;;;;;;;10.52;100.00;100720.78;5070974;28;20052;-81
2022/11/07 09:41:23;;;;;;;18.38;6.00;;;;;;;10.55;100.00;100717.28;5046893;28;20043;-83
2022/11/07 09:44:14;;;;;;;20.50;5.90;;;;;;;10.57;100.00;100717.25;5090969;28;20547;-81
2022/11/07 09:47:00;;;;;;;14.68;6.68;;;;;;;10.61;100.00;100721.69;5062125;28;20040;-84
2022/11/07 09:49:34;;;;;;;11.98;6.40;;;;;;;10.64;100.00;100722.56;5076235;28;20040;-82
2022/11/07 09:52:06;;;;;;;11.95;5.72;;;;;;;10.67;100.00;100714.66;5077573;28;20040;-84
2022/11/07 09:54:40;;;;;;;13.88;5.72;;;;;;;10.72;100.00;100719.94;5076312;28;20052;-81
2022/11/07 09:57:15;;;;;;;18.42;6.30;;;;;;;10.77;100.00;100728.69;5041311;28;20400;-81
2022/11/07 09:59:55;;;;;;;10.88;4.70;;;;;;;10.82;100.00;100729.59;5070314;28;20085;-84
2022/11/07 10:02:29;;;;;;;12.88;4.95;;;;;;;10.87;100.00;100734.88;5072100;28;20056;-85
2022/11/07 10:05:01;;;;;;;13.65;4.93;;;;;;;10.91;100.00;100734.00;5059130;28;20553;-82
2022/11/07 10:07:56;;;;;;;12.15;5.57;;;;;;;11.01;100.00;100737.50;5074669;28;20043;-85
2022/11/07 10:10:47;;;;;;;11.77;5.20;;;;;;;11.05;100.00;100736.63;5070814;28;20040;-84
2022/11/07 10:13:30;;;;;;;12.48;4.07;;;;;;;11.12;100.00;100744.53;5069922;28;20041;-83
2022/11/07 10:16:15;;;;;;;15.35;4.40;;;;;;;11.18;100.00;100740.13;5066885;28;20566;-84
2022/11/07 10:18:56;;;;;;;11.38;4.60;;;;;;;11.21;100.00;100754.22;5077740;28;20079;-84
2022/11/07 10:21:53;;;;;;;12.63;4.28;;;;;;;11.23;100.00;100755.06;5078745;28;20404;-84
2022/11/07 10:24:27;;;;;;;18.58;4.80;;;;;;;11.27;100.00;100755.97;5070703;28;20047;-81
2022/11/07 10:26:57;;;;;;;16.95;4.40;;;;;;;11.29;100.00;100757.69;5052356;28;20273;-81
2022/11/07 10:29:35;;;;;;;16.05;4.95;;;;;;;11.31;100.00;100763.84;5087593;28;20052;-82
2022/11/07 10:32:21;;;;;;;18.85;4.90;;;;;;;11.32;100.00;100760.34;5088159;28;20044;-81
2022/11/07 10:35:11;;;;;;;13.68;4.22;;;;;;;11.32;100.00;100770.91;5051856;28;20391;-81
2022/11/07 10:37:40;;;;;;;11.60;4.13;;;;;;;11.31;100.00;100766.50;5061620;28;20028;-84
2022/11/07 10:40:17;;;;;;;14.25;4.55;;;;;;;11.30;100.00;100770.03;5068007;28;20067;-81
2022/11/07 10:42:47;;;;;;;19.27;4.40;;;;;;;11.33;100.00;100771.78;5038563;28;20045;-82
2022/11/07 10:45:16;;;;;;;13.80;4.43;;;;;;;11.36;100.00;100770.88;5063917;28;20035;-81
2022/11/07 10:47:56;;;;;;;12.57;4.35;;;;;;;11.39;100.00;100781.44;5065882;28;20047;-81
2022/11/07 10:50:28;;;;;;;10.13;4.07;;;;;;;11.40;100.00;100783.19;5064453;28;20040;-81
2022/11/07 10:53:08;;;;;;;17.92;4.32;;;;;;;11.44;100.00;100791.09;5074806;28;20256;-81
2022/11/07 10:55:46;;;;;;;12.65;3.95;;;;;;;11.48;100.00;100787.56;5080362;28;20052;-82
2022/11/07 10:58:26;;;;;;;13.32;4.18;;;;;;;11.54;100.00;100786.69;5041735;28;20363;-81
2022/11/07 11:00:56;;;;;;;;;;;;;;;11.58;100.00;100791.06;5083629;28;20157;-81
2022/11/07 11:03:28;;;;;;;14.10;4.30;;;;;;;11.60;100.00;100788.44;5088740;28;19941;-82
2022/11/07 11:06:17;;;;;;;10.25;3.20;;;;;;;11.64;100.00;100792.81;5062834;28;20490;-82
2022/11/07 11:08:47;;;;;;;11.65;4.18;;;;;;;11.67;100.00;100788.41;5043151;28;20048;-82
2022/11/07 11:11:17;;;;;;;9.82;3.35;;;;;;;11.76;100.00;100794.53;5089698;28;20493;-83
2022/11/07 11:13:47;;;;;;;11.27;3.67;;;;;;;11.81;100.00;100790.16;5071817;28;20040;-82
2022/11/07 11:16:27;;;;;;;9.23;3.40;;;;;;;11.85;100.00;100790.16;5072898;28;20032;-83
2022/11/07 11:19:01;;;;;;;12.40;3.42;;;;;;;11.92;100.00;100779.59;5111843;28;20047;-83
2022/11/07 11:21:41;;;;;;;12.50;3.53;;;;;;;11.96;100.00;100778.69;5069954;28;20039;-83
2022/11/07 11:24:26;;;;;;;11.88;3.83;;;;;;;11.98;100.00;100785.72;5109333;28;20039;-83
2022/11/07 11:27:16;;;;;;;14.18;3.85;;;;;;;11.96;100.00;100787.47;5089671;28;20047;-83
2022/11/07 11:29:55;;;;;;;12.00;3.67;;;;;;;11.98;100.00;100784.84;5067061;28;20066;-83
2022/11/07 11:32:30;;;;;;;10.45;3.40;;;;;;;11.96;100.00;100795.41;5105099;27;20040;-83
2022/11/07 11:35:34;;;;;;;18.63;4.60;;;;;;;11.93;100.00;100783.97;5078814;28;20485;-82
2022/11/07 11:38:40;;;;;;;17.30;4.15;;;;;;;11.90;100.00;100795.44;5094727;28;20393;-83
2022/11/07 11:41:12;;;;;;;15.20;4.05;;;;;;;11.89;100.00;100797.19;5092480;28;20153;-83